sensor_id;sensor_type;location;lat;lon;timestamp;P1;durP1;ratioP1;P2;durP2;ratioP2
59824;SDS011;45703;50.898;6.054;2023-05-23T00:02:03;28.95;;;17.80;;
59824;SDS011;45703;50.898;6.054;2023-05-23T00:04:32;25.50;;;17.08;;
59824;SDS011;45703;50.898;6.054;2023-05-23T00:06:59;26.52;;;17.23;;
59824;SDS011;45703;50.898;6.054;2023-05-23T00:09:25;28.73;;;17.08;;
59824;SDS011;45703;50.898;6.054;2023-05-23T00:11:50;23.15;;;15.40;;
59824;SDS011;45703;50.898;6.054;2023-05-23T00:14:16;24.35;;;15.93;;
59824;SDS011;45703;50.898;6.054;2023-05-23T00:16:42;23.00;;;15.27;;
59824;SDS011;45703;50.898;6.054;2023-05-23T00:19:09;26.17;;;15.50;;
59824;SDS011;45703;50.898;6.054;2023-05-23T00:21:35;21.67;;;15.05;;
59824;SDS011;45703;50.898;6.054;2023-05-23T00:24:01;19.83;;;14.05;;
59824;SDS011;45703;50.898;6.054;2023-05-23T00:26:29;23.75;;;14.85;;
59824;SDS011;45703;50.898;6.054;2023-05-23T00:28:55;23.08;;;15.30;;
59824;SDS011;45703;50.898;6.054;2023-05-23T00:31:22;21.05;;;15.10;;
59824;SDS011;45703;50.898;6.054;2023-05-23T00:33:47;23.30;;;15.55;;
59824;SDS011;45703;50.898;6.054;2023-05-23T00:36:12;22.63;;;15.85;;
59824;SDS011;45703;50.898;6.054;2023-05-23T00:38:38;21.85;;;14.98;;
59824;SDS011;45703;50.898;6.054;2023-05-23T00:41:04;23.88;;;14.93;;
59824;SDS011;45703;50.898;6.054;2023-05-23T00:43:30;25.33;;;15.13;;
59824;SDS011;45703;50.898;6.054;2023-05-23T00:45:55;22.35;;;15.98;;
59824;SDS011;45703;50.898;6.054;2023-05-23T00:48:21;21.58;;;14.60;;
59824;SDS011;45703;50.898;6.054;2023-05-23T00:50:48;21.88;;;14.52;;
59824;SDS011;45703;50.898;6.054;2023-05-23T00:53:14;22.73;;;14.98;;
59824;SDS011;45703;50.898;6.054;2023-05-23T00:55:40;21.02;;;13.77;;
59824;SDS011;45703;50.898;6.054;2023-05-23T00:58:06;21.30;;;14.10;;
59824;SDS011;45703;50.898;6.054;2023-05-23T01:00:32;23.33;;;15.73;;
59824;SDS011;45703;50.898;6.054;2023-05-23T01:02:58;22.70;;;14.93;;
59824;SDS011;45703;50.898;6.054;2023-05-23T01:05:25;23.27;;;15.63;;
59824;SDS011;45703;50.898;6.054;2023-05-23T01:07:50;22.05;;;16.13;;
59824;SDS011;45703;50.898;6.054;2023-05-23T01:10:24;25.90;;;17.40;;
59824;SDS011;45703;50.898;6.054;2023-05-23T01:15:43;23.38;;;15.38;;
59824;SDS011;45703;50.898;6.054;2023-05-23T01:18:28;24.50;;;16.90;;
59824;SDS011;45703;50.898;6.054;2023-05-23T01:21:05;28.10;;;16.67;;
59824;SDS011;45703;50.898;6.054;2023-05-23T01:23:44;25.45;;;16.33;;
59824;SDS011;45703;50.898;6.054;2023-05-23T01:29:34;23.08;;;15.88;;
59824;SDS011;45703;50.898;6.054;2023-05-23T01:32:11;26.85;;;16.85;;
59824;SDS011;45703;50.898;6.054;2023-05-23T01:34:38;25.05;;;16.08;;
59824;SDS011;45703;50.898;6.054;2023-05-23T01:37:09;25.80;;;16.10;;
59824;SDS011;45703;50.898;6.054;2023-05-23T01:39:35;20.27;;;13.85;;
59824;SDS011;45703;50.898;6.054;2023-05-23T01:42:01;21.10;;;13.52;;
59824;SDS011;45703;50.898;6.054;2023-05-23T01:44:27;23.08;;;14.85;;
59824;SDS011;45703;50.898;6.054;2023-05-23T01:46:53;24.95;;;16.98;;
59824;SDS011;45703;50.898;6.054;2023-05-23T01:49:18;24.95;;;16.50;;
59824;SDS011;45703;50.898;6.054;2023-05-23T01:51:46;25.02;;;16.77;;
59824;SDS011;45703;50.898;6.054;2023-05-23T01:54:12;25.75;;;17.17;;
59824;SDS011;45703;50.898;6.054;2023-05-23T01:56:41;24.20;;;17.13;;
59824;SDS011;45703;50.898;6.054;2023-05-23T01:59:07;22.48;;;15.73;;
59824;SDS011;45703;50.898;6.054;2023-05-23T02:01:33;24.58;;;16.90;;
59824;SDS011;45703;50.898;6.054;2023-05-23T02:03:58;27.40;;;16.52;;
59824;SDS011;45703;50.898;6.054;2023-05-23T02:06:24;26.17;;;17.80;;
59824;SDS011;45703;50.898;6.054;2023-05-23T02:08:49;23.92;;;16.50;;
59824;SDS011;45703;50.898;6.054;2023-05-23T02:11:15;23.40;;;14.63;;
59824;SDS011;45703;50.898;6.054;2023-05-23T02:13:40;21.38;;;14.85;;
59824;SDS011;45703;50.898;6.054;2023-05-23T02:16:06;23.65;;;14.82;;
59824;SDS011;45703;50.898;6.054;2023-05-23T02:18:32;23.17;;;14.10;;
59824;SDS011;45703;50.898;6.054;2023-05-23T02:20:57;24.55;;;14.73;;
59824;SDS011;45703;50.898;6.054;2023-05-23T02:23:22;23.85;;;14.45;;
59824;SDS011;45703;50.898;6.054;2023-05-23T02:25:48;19.00;;;13.50;;
59824;SDS011;45703;50.898;6.054;2023-05-23T02:28:13;19.50;;;12.55;;
59824;SDS011;45703;50.898;6.054;2023-05-23T02:30:39;19.33;;;12.48;;
59824;SDS011;45703;50.898;6.054;2023-05-23T02:33:04;17.83;;;12.00;;
59824;SDS011;45703;50.898;6.054;2023-05-23T02:35:30;18.23;;;12.55;;
59824;SDS011;45703;50.898;6.054;2023-05-23T02:37:56;18.88;;;11.95;;
59824;SDS011;45703;50.898;6.054;2023-05-23T02:40:22;17.17;;;11.98;;
59824;SDS011;45703;50.898;6.054;2023-05-23T02:42:47;18.48;;;11.25;;
59824;SDS011;45703;50.898;6.054;2023-05-23T02:45:15;18.23;;;12.43;;
59824;SDS011;45703;50.898;6.054;2023-05-23T02:47:40;18.92;;;12.07;;
59824;SDS011;45703;50.898;6.054;2023-05-23T02:50:06;20.75;;;13.38;;
59824;SDS011;45703;50.898;6.054;2023-05-23T02:52:32;20.00;;;13.20;;
59824;SDS011;45703;50.898;6.054;2023-05-23T02:54:58;17.85;;;12.88;;
59824;SDS011;45703;50.898;6.054;2023-05-23T02:57:23;18.52;;;12.82;;
59824;SDS011;45703;50.898;6.054;2023-05-23T02:59:49;20.50;;;14.13;;
59824;SDS011;45703;50.898;6.054;2023-05-23T03:02:14;19.85;;;13.18;;
59824;SDS011;45703;50.898;6.054;2023-05-23T03:04:40;24.08;;;14.68;;
59824;SDS011;45703;50.898;6.054;2023-05-23T03:07:05;22.05;;;13.75;;
59824;SDS011;45703;50.898;6.054;2023-05-23T03:09:31;21.80;;;14.23;;
59824;SDS011;45703;50.898;6.054;2023-05-23T03:11:56;20.98;;;13.70;;
59824;SDS011;45703;50.898;6.054;2023-05-23T03:14:21;20.83;;;13.63;;
59824;SDS011;45703;50.898;6.054;2023-05-23T03:16:47;23.67;;;14.88;;
59824;SDS011;45703;50.898;6.054;2023-05-23T03:19:12;21.63;;;13.95;;
59824;SDS011;45703;50.898;6.054;2023-05-23T03:21:38;22.65;;;14.20;;
59824;SDS011;45703;50.898;6.054;2023-05-23T03:24:03;21.88;;;14.27;;
59824;SDS011;45703;50.898;6.054;2023-05-23T03:26:29;20.25;;;13.63;;
59824;SDS011;45703;50.898;6.054;2023-05-23T03:28:54;19.17;;;13.15;;
59824;SDS011;45703;50.898;6.054;2023-05-23T03:31:20;20.80;;;12.93;;
59824;SDS011;45703;50.898;6.054;2023-05-23T03:33:45;21.05;;;13.75;;
59824;SDS011;45703;50.898;6.054;2023-05-23T03:36:10;21.42;;;13.43;;
59824;SDS011;45703;50.898;6.054;2023-05-23T03:38:36;21.90;;;13.18;;
59824;SDS011;45703;50.898;6.054;2023-05-23T03:41:01;20.50;;;12.93;;
59824;SDS011;45703;50.898;6.054;2023-05-23T03:43:27;21.20;;;13.05;;
59824;SDS011;45703;50.898;6.054;2023-05-23T03:45:52;20.27;;;12.73;;
59824;SDS011;45703;50.898;6.054;2023-05-23T03:48:18;19.75;;;13.25;;
59824;SDS011;45703;50.898;6.054;2023-05-23T03:50:43;18.08;;;12.38;;
59824;SDS011;45703;50.898;6.054;2023-05-23T03:53:08;20.95;;;13.23;;
59824;SDS011;45703;50.898;6.054;2023-05-23T03:55:34;18.67;;;12.32;;
59824;SDS011;45703;50.898;6.054;2023-05-23T03:57:59;18.50;;;12.05;;
59824;SDS011;45703;50.898;6.054;2023-05-23T04:00:25;18.55;;;11.95;;
59824;SDS011;45703;50.898;6.054;2023-05-23T04:02:51;18.10;;;11.57;;
59824;SDS011;45703;50.898;6.054;2023-05-23T04:05:16;17.77;;;12.00;;
59824;SDS011;45703;50.898;6.054;2023-05-23T04:07:42;19.80;;;11.73;;
59824;SDS011;45703;50.898;6.054;2023-05-23T04:10:08;18.75;;;11.82;;
59824;SDS011;45703;50.898;6.054;2023-05-23T04:12:34;18.17;;;12.70;;
59824;SDS011;45703;50.898;6.054;2023-05-23T04:15:00;19.70;;;11.50;;
59824;SDS011;45703;50.898;6.054;2023-05-23T04:17:25;18.92;;;11.38;;
59824;SDS011;45703;50.898;6.054;2023-05-23T04:19:54;16.23;;;10.90;;
59824;SDS011;45703;50.898;6.054;2023-05-23T04:22:20;20.20;;;11.02;;
59824;SDS011;45703;50.898;6.054;2023-05-23T04:24:45;18.40;;;12.05;;
59824;SDS011;45703;50.898;6.054;2023-05-23T04:27:11;18.77;;;11.77;;
59824;SDS011;45703;50.898;6.054;2023-05-23T04:29:37;21.23;;;11.63;;
59824;SDS011;45703;50.898;6.054;2023-05-23T04:32:03;18.88;;;10.77;;
59824;SDS011;45703;50.898;6.054;2023-05-23T04:34:30;17.00;;;10.98;;
59824;SDS011;45703;50.898;6.054;2023-05-23T04:36:57;18.70;;;11.95;;
59824;SDS011;45703;50.898;6.054;2023-05-23T04:39:26;18.73;;;12.00;;
59824;SDS011;45703;50.898;6.054;2023-05-23T04:41:51;17.95;;;11.00;;
59824;SDS011;45703;50.898;6.054;2023-05-23T04:44:18;18.40;;;10.55;;
59824;SDS011;45703;50.898;6.054;2023-05-23T04:46:44;18.08;;;10.45;;
59824;SDS011;45703;50.898;6.054;2023-05-23T04:49:10;18.02;;;10.50;;
59824;SDS011;45703;50.898;6.054;2023-05-23T04:51:37;19.15;;;10.80;;
59824;SDS011;45703;50.898;6.054;2023-05-23T04:54:02;16.83;;;9.88;;
59824;SDS011;45703;50.898;6.054;2023-05-23T04:56:28;17.38;;;10.73;;
59824;SDS011;45703;50.898;6.054;2023-05-23T04:58:54;17.20;;;10.02;;
59824;SDS011;45703;50.898;6.054;2023-05-23T05:01:20;18.95;;;11.75;;
59824;SDS011;45703;50.898;6.054;2023-05-23T05:03:48;19.67;;;11.38;;
59824;SDS011;45703;50.898;6.054;2023-05-23T05:06:13;19.52;;;11.85;;
59824;SDS011;45703;50.898;6.054;2023-05-23T05:08:40;17.92;;;10.82;;
59824;SDS011;45703;50.898;6.054;2023-05-23T05:11:05;17.52;;;11.63;;
59824;SDS011;45703;50.898;6.054;2023-05-23T05:13:31;18.83;;;12.18;;
59824;SDS011;45703;50.898;6.054;2023-05-23T05:15:56;18.52;;;11.60;;
59824;SDS011;45703;50.898;6.054;2023-05-23T05:18:23;20.90;;;11.45;;
59824;SDS011;45703;50.898;6.054;2023-05-23T05:20:50;18.80;;;11.98;;
59824;SDS011;45703;50.898;6.054;2023-05-23T05:23:15;19.10;;;11.20;;
59824;SDS011;45703;50.898;6.054;2023-05-23T05:25:40;19.38;;;10.90;;
59824;SDS011;45703;50.898;6.054;2023-05-23T05:28:06;19.02;;;11.77;;
59824;SDS011;45703;50.898;6.054;2023-05-23T05:30:31;18.73;;;11.07;;
59824;SDS011;45703;50.898;6.054;2023-05-23T05:33:03;18.55;;;12.18;;
59824;SDS011;45703;50.898;6.054;2023-05-23T05:35:33;19.73;;;11.73;;
59824;SDS011;45703;50.898;6.054;2023-05-23T05:37:59;19.67;;;11.50;;
59824;SDS011;45703;50.898;6.054;2023-05-23T05:40:26;18.73;;;11.35;;
59824;SDS011;45703;50.898;6.054;2023-05-23T05:42:52;19.35;;;11.18;;
59824;SDS011;45703;50.898;6.054;2023-05-23T05:45:17;19.05;;;11.40;;
59824;SDS011;45703;50.898;6.054;2023-05-23T05:47:43;18.60;;;10.52;;
59824;SDS011;45703;50.898;6.054;2023-05-23T05:50:09;19.48;;;11.68;;
59824;SDS011;45703;50.898;6.054;2023-05-23T05:52:35;16.33;;;10.13;;
59824;SDS011;45703;50.898;6.054;2023-05-23T05:55:12;15.60;;;10.32;;
59824;SDS011;45703;50.898;6.054;2023-05-23T05:57:38;16.42;;;9.85;;
59824;SDS011;45703;50.898;6.054;2023-05-23T06:00:07;16.80;;;9.57;;
59824;SDS011;45703;50.898;6.054;2023-05-23T06:02:39;17.73;;;9.65;;
59824;SDS011;45703;50.898;6.054;2023-05-23T06:05:06;13.43;;;8.90;;
59824;SDS011;45703;50.898;6.054;2023-05-23T06:07:35;17.42;;;9.38;;
59824;SDS011;45703;50.898;6.054;2023-05-23T06:10:00;16.63;;;8.95;;
59824;SDS011;45703;50.898;6.054;2023-05-23T06:12:26;15.18;;;8.85;;
59824;SDS011;45703;50.898;6.054;2023-05-23T06:14:51;14.50;;;8.45;;
59824;SDS011;45703;50.898;6.054;2023-05-23T06:17:17;15.85;;;8.48;;
59824;SDS011;45703;50.898;6.054;2023-05-23T06:19:42;12.35;;;7.82;;
59824;SDS011;45703;50.898;6.054;2023-05-23T06:22:08;13.52;;;8.20;;
59824;SDS011;45703;50.898;6.054;2023-05-23T06:24:33;14.95;;;8.05;;
59824;SDS011;45703;50.898;6.054;2023-05-23T06:26:58;14.02;;;7.90;;
59824;SDS011;45703;50.898;6.054;2023-05-23T06:29:24;14.90;;;7.68;;
59824;SDS011;45703;50.898;6.054;2023-05-23T06:31:49;12.60;;;7.18;;
59824;SDS011;45703;50.898;6.054;2023-05-23T06:34:15;13.23;;;7.30;;
59824;SDS011;45703;50.898;6.054;2023-05-23T06:36:40;13.27;;;7.72;;
59824;SDS011;45703;50.898;6.054;2023-05-23T06:39:07;14.55;;;7.03;;
59824;SDS011;45703;50.898;6.054;2023-05-23T06:41:34;16.77;;;7.97;;
59824;SDS011;45703;50.898;6.054;2023-05-23T06:44:00;15.15;;;8.13;;
59824;SDS011;45703;50.898;6.054;2023-05-23T06:46:25;14.60;;;7.95;;
59824;SDS011;45703;50.898;6.054;2023-05-23T06:48:50;13.98;;;7.18;;
59824;SDS011;45703;50.898;6.054;2023-05-23T06:51:16;13.82;;;7.35;;
59824;SDS011;45703;50.898;6.054;2023-05-23T06:53:41;13.18;;;7.82;;
59824;SDS011;45703;50.898;6.054;2023-05-23T06:56:07;13.90;;;7.10;;
59824;SDS011;45703;50.898;6.054;2023-05-23T06:58:32;12.95;;;7.43;;
59824;SDS011;45703;50.898;6.054;2023-05-23T07:00:57;13.02;;;7.25;;
59824;SDS011;45703;50.898;6.054;2023-05-23T07:03:23;13.65;;;7.85;;
59824;SDS011;45703;50.898;6.054;2023-05-23T07:05:48;13.63;;;6.90;;
59824;SDS011;45703;50.898;6.054;2023-05-23T07:08:13;14.13;;;7.68;;
59824;SDS011;45703;50.898;6.054;2023-05-23T07:10:39;14.57;;;7.63;;
59824;SDS011;45703;50.898;6.054;2023-05-23T07:13:07;13.05;;;7.03;;
59824;SDS011;45703;50.898;6.054;2023-05-23T07:15:33;12.27;;;6.90;;
59824;SDS011;45703;50.898;6.054;2023-05-23T07:17:58;15.80;;;7.53;;
59824;SDS011;45703;50.898;6.054;2023-05-23T07:20:24;12.82;;;7.40;;
59824;SDS011;45703;50.898;6.054;2023-05-23T07:22:49;13.02;;;7.50;;
59824;SDS011;45703;50.898;6.054;2023-05-23T07:25:15;13.35;;;7.57;;
59824;SDS011;45703;50.898;6.054;2023-05-23T07:27:41;13.30;;;7.60;;
59824;SDS011;45703;50.898;6.054;2023-05-23T07:30:07;14.77;;;7.63;;
59824;SDS011;45703;50.898;6.054;2023-05-23T07:32:34;15.38;;;8.27;;
59824;SDS011;45703;50.898;6.054;2023-05-23T07:35:00;13.00;;;7.68;;
59824;SDS011;45703;50.898;6.054;2023-05-23T07:37:25;15.93;;;7.97;;
59824;SDS011;45703;50.898;6.054;2023-05-23T07:39:51;12.85;;;7.70;;
59824;SDS011;45703;50.898;6.054;2023-05-23T07:42:19;14.63;;;8.70;;
59824;SDS011;45703;50.898;6.054;2023-05-23T07:44:45;14.38;;;8.38;;
59824;SDS011;45703;50.898;6.054;2023-05-23T07:47:10;13.95;;;7.80;;
59824;SDS011;45703;50.898;6.054;2023-05-23T07:49:36;15.10;;;8.20;;
59824;SDS011;45703;50.898;6.054;2023-05-23T07:52:01;15.73;;;8.95;;
59824;SDS011;45703;50.898;6.054;2023-05-23T07:54:26;14.13;;;8.23;;
59824;SDS011;45703;50.898;6.054;2023-05-23T07:56:52;16.05;;;8.77;;
59824;SDS011;45703;50.898;6.054;2023-05-23T07:59:18;17.58;;;8.98;;
59824;SDS011;45703;50.898;6.054;2023-05-23T08:01:44;18.77;;;9.65;;
59824;SDS011;45703;50.898;6.054;2023-05-23T08:04:09;18.60;;;10.38;;
59824;SDS011;45703;50.898;6.054;2023-05-23T08:06:35;21.75;;;9.65;;
59824;SDS011;45703;50.898;6.054;2023-05-23T08:09:02;20.20;;;9.43;;
59824;SDS011;45703;50.898;6.054;2023-05-23T08:11:30;17.92;;;10.05;;
59824;SDS011;45703;50.898;6.054;2023-05-23T08:13:55;18.17;;;9.20;;
59824;SDS011;45703;50.898;6.054;2023-05-23T08:16:21;18.83;;;9.15;;
59824;SDS011;45703;50.898;6.054;2023-05-23T08:18:47;21.90;;;9.43;;
59824;SDS011;45703;50.898;6.054;2023-05-23T08:21:12;15.38;;;8.82;;
59824;SDS011;45703;50.898;6.054;2023-05-23T08:23:37;15.35;;;8.13;;
59824;SDS011;45703;50.898;6.054;2023-05-23T08:26:03;19.35;;;9.15;;
59824;SDS011;45703;50.898;6.054;2023-05-23T08:28:28;15.70;;;7.30;;
59824;SDS011;45703;50.898;6.054;2023-05-23T08:30:54;15.63;;;7.88;;
59824;SDS011;45703;50.898;6.054;2023-05-23T08:33:21;15.48;;;7.82;;
59824;SDS011;45703;50.898;6.054;2023-05-23T08:35:46;16.48;;;7.82;;
59824;SDS011;45703;50.898;6.054;2023-05-23T08:38:11;17.77;;;8.30;;
59824;SDS011;45703;50.898;6.054;2023-05-23T08:40:37;18.63;;;8.18;;
59824;SDS011;45703;50.898;6.054;2023-05-23T08:43:06;17.58;;;7.75;;
59824;SDS011;45703;50.898;6.054;2023-05-23T08:45:31;16.42;;;8.02;;
59824;SDS011;45703;50.898;6.054;2023-05-23T08:47:59;16.25;;;8.38;;
59824;SDS011;45703;50.898;6.054;2023-05-23T08:50:25;15.57;;;7.75;;
59824;SDS011;45703;50.898;6.054;2023-05-23T08:52:54;15.25;;;7.72;;
59824;SDS011;45703;50.898;6.054;2023-05-23T08:55:24;15.85;;;7.85;;
59824;SDS011;45703;50.898;6.054;2023-05-23T08:57:53;15.40;;;7.28;;
59824;SDS011;45703;50.898;6.054;2023-05-23T09:00:26;17.80;;;7.63;;
59824;SDS011;45703;50.898;6.054;2023-05-23T09:02:52;16.02;;;6.72;;
59824;SDS011;45703;50.898;6.054;2023-05-23T09:05:18;13.93;;;6.95;;
59824;SDS011;45703;50.898;6.054;2023-05-23T09:07:46;14.25;;;6.90;;
59824;SDS011;45703;50.898;6.054;2023-05-23T09:10:13;14.93;;;5.80;;
59824;SDS011;45703;50.898;6.054;2023-05-23T09:12:41;13.70;;;5.65;;
59824;SDS011;45703;50.898;6.054;2023-05-23T09:15:07;13.10;;;6.05;;
59824;SDS011;45703;50.898;6.054;2023-05-23T09:17:34;13.13;;;6.03;;
59824;SDS011;45703;50.898;6.054;2023-05-23T09:20:00;12.05;;;6.43;;
59824;SDS011;45703;50.898;6.054;2023-05-23T09:22:34;12.70;;;5.85;;
59824;SDS011;45703;50.898;6.054;2023-05-23T09:24:59;13.60;;;5.75;;
59824;SDS011;45703;50.898;6.054;2023-05-23T09:27:26;11.65;;;5.90;;
59824;SDS011;45703;50.898;6.054;2023-05-23T09:29:51;15.35;;;6.35;;
59824;SDS011;45703;50.898;6.054;2023-05-23T09:32:18;14.80;;;6.05;;
59824;SDS011;45703;50.898;6.054;2023-05-23T09:34:57;14.00;;;6.50;;
59824;SDS011;45703;50.898;6.054;2023-05-23T09:37:34;13.13;;;5.95;;
59824;SDS011;45703;50.898;6.054;2023-05-23T09:40:06;12.68;;;5.28;;
59824;SDS011;45703;50.898;6.054;2023-05-23T09:42:40;11.50;;;5.45;;
59824;SDS011;45703;50.898;6.054;2023-05-23T09:45:10;13.00;;;5.75;;
59824;SDS011;45703;50.898;6.054;2023-05-23T09:47:36;10.63;;;5.55;;
59824;SDS011;45703;50.898;6.054;2023-05-23T09:50:02;12.70;;;5.90;;
59824;SDS011;45703;50.898;6.054;2023-05-23T09:52:32;14.07;;;6.25;;
59824;SDS011;45703;50.898;6.054;2023-05-23T09:55:02;12.45;;;5.80;;
59824;SDS011;45703;50.898;6.054;2023-05-23T09:57:27;12.20;;;5.78;;
59824;SDS011;45703;50.898;6.054;2023-05-23T09:59:54;13.40;;;5.60;;
59824;SDS011;45703;50.898;6.054;2023-05-23T10:02:34;15.98;;;6.72;;
59824;SDS011;45703;50.898;6.054;2023-05-23T10:05:26;13.73;;;6.13;;
59824;SDS011;45703;50.898;6.054;2023-05-23T10:07:58;13.88;;;5.72;;
59824;SDS011;45703;50.898;6.054;2023-05-23T10:10:28;12.88;;;5.95;;
59824;SDS011;45703;50.898;6.054;2023-05-23T10:12:57;16.63;;;6.82;;
59824;SDS011;45703;50.898;6.054;2023-05-23T10:15:26;13.77;;;6.03;;
59824;SDS011;45703;50.898;6.054;2023-05-23T10:18:09;11.85;;;6.55;;
59824;SDS011;45703;50.898;6.054;2023-05-23T10:20:42;13.35;;;6.28;;
59824;SDS011;45703;50.898;6.054;2023-05-23T10:23:11;12.48;;;6.28;;
59824;SDS011;45703;50.898;6.054;2023-05-23T10:25:37;13.68;;;6.53;;
59824;SDS011;45703;50.898;6.054;2023-05-23T10:28:05;14.70;;;6.15;;
59824;SDS011;45703;50.898;6.054;2023-05-23T10:30:30;12.55;;;6.65;;
59824;SDS011;45703;50.898;6.054;2023-05-23T10:32:56;15.95;;;7.05;;
59824;SDS011;45703;50.898;6.054;2023-05-23T10:37:51;15.32;;;7.35;;
59824;SDS011;45703;50.898;6.054;2023-05-23T10:43:02;15.50;;;5.75;;
59824;SDS011;45703;50.898;6.054;2023-05-23T10:45:40;13.63;;;5.70;;
59824;SDS011;45703;50.898;6.054;2023-05-23T10:51:09;11.90;;;5.78;;
59824;SDS011;45703;50.898;6.054;2023-05-23T10:53:40;11.80;;;5.68;;
59824;SDS011;45703;50.898;6.054;2023-05-23T10:56:07;11.45;;;5.50;;
59824;SDS011;45703;50.898;6.054;2023-05-23T10:58:35;11.98;;;5.43;;
59824;SDS011;45703;50.898;6.054;2023-05-23T11:01:07;13.63;;;5.00;;
59824;SDS011;45703;50.898;6.054;2023-05-23T11:03:34;14.32;;;6.22;;
59824;SDS011;45703;50.898;6.054;2023-05-23T11:06:01;11.43;;;5.75;;
59824;SDS011;45703;50.898;6.054;2023-05-23T11:08:35;10.90;;;4.88;;
59824;SDS011;45703;50.898;6.054;2023-05-23T11:11:02;12.48;;;5.20;;
59824;SDS011;45703;50.898;6.054;2023-05-23T11:16:31;12.18;;;4.78;;
59824;SDS011;45703;50.898;6.054;2023-05-23T11:21:59;10.35;;;4.45;;
59824;SDS011;45703;50.898;6.054;2023-05-23T11:27:26;10.35;;;4.90;;
59824;SDS011;45703;50.898;6.054;2023-05-23T11:30:03;10.10;;;5.07;;
59824;SDS011;45703;50.898;6.054;2023-05-23T11:32:31;9.00;;;4.22;;
59824;SDS011;45703;50.898;6.054;2023-05-23T11:35:00;12.43;;;5.28;;
59824;SDS011;45703;50.898;6.054;2023-05-23T11:37:27;10.73;;;4.28;;
59824;SDS011;45703;50.898;6.054;2023-05-23T11:39:53;10.48;;;4.88;;
59824;SDS011;45703;50.898;6.054;2023-05-23T11:42:19;10.38;;;4.53;;
59824;SDS011;45703;50.898;6.054;2023-05-23T11:44:47;11.25;;;4.80;;
59824;SDS011;45703;50.898;6.054;2023-05-23T11:47:13;10.23;;;4.68;;
59824;SDS011;45703;50.898;6.054;2023-05-23T11:49:38;10.65;;;4.45;;
59824;SDS011;45703;50.898;6.054;2023-05-23T11:52:04;11.80;;;4.60;;
59824;SDS011;45703;50.898;6.054;2023-05-23T11:54:31;10.65;;;4.43;;
59824;SDS011;45703;50.898;6.054;2023-05-23T11:56:57;10.27;;;4.70;;
59824;SDS011;45703;50.898;6.054;2023-05-23T11:59:23;12.10;;;4.55;;
59824;SDS011;45703;50.898;6.054;2023-05-23T12:01:50;8.88;;;3.83;;
59824;SDS011;45703;50.898;6.054;2023-05-23T12:04:16;10.68;;;3.72;;
59824;SDS011;45703;50.898;6.054;2023-05-23T12:06:44;10.00;;;3.95;;
59824;SDS011;45703;50.898;6.054;2023-05-23T12:09:12;9.48;;;3.47;;
59824;SDS011;45703;50.898;6.054;2023-05-23T12:11:38;10.30;;;3.97;;
59824;SDS011;45703;50.898;6.054;2023-05-23T12:14:05;10.32;;;4.07;;
59824;SDS011;45703;50.898;6.054;2023-05-23T12:16:32;13.30;;;4.00;;
59824;SDS011;45703;50.898;6.054;2023-05-23T12:18:59;9.73;;;3.80;;
59824;SDS011;45703;50.898;6.054;2023-05-23T12:21:25;10.45;;;4.00;;
59824;SDS011;45703;50.898;6.054;2023-05-23T12:24:14;9.95;;;4.15;;
59824;SDS011;45703;50.898;6.054;2023-05-23T12:29:12;11.80;;;3.60;;
59824;SDS011;45703;50.898;6.054;2023-05-23T12:31:38;11.93;;;3.80;;
59824;SDS011;45703;50.898;6.054;2023-05-23T12:34:04;12.93;;;3.60;;
59824;SDS011;45703;50.898;6.054;2023-05-23T12:36:29;11.07;;;3.92;;
59824;SDS011;45703;50.898;6.054;2023-05-23T12:39:01;13.60;;;4.10;;
59824;SDS011;45703;50.898;6.054;2023-05-23T12:41:28;13.02;;;3.88;;
59824;SDS011;45703;50.898;6.054;2023-05-23T12:43:55;10.52;;;3.72;;
59824;SDS011;45703;50.898;6.054;2023-05-23T12:46:21;12.68;;;4.63;;
59824;SDS011;45703;50.898;6.054;2023-05-23T12:48:48;12.73;;;4.03;;
59824;SDS011;45703;50.898;6.054;2023-05-23T12:51:14;11.40;;;3.85;;
59824;SDS011;45703;50.898;6.054;2023-05-23T12:53:40;11.02;;;4.25;;
59824;SDS011;45703;50.898;6.054;2023-05-23T12:56:05;10.48;;;4.05;;
59824;SDS011;45703;50.898;6.054;2023-05-23T12:58:31;10.10;;;3.63;;
59824;SDS011;45703;50.898;6.054;2023-05-23T13:00:58;11.35;;;3.45;;
59824;SDS011;45703;50.898;6.054;2023-05-23T13:03:23;12.15;;;3.45;;
59824;SDS011;45703;50.898;6.054;2023-05-23T13:05:49;8.82;;;3.35;;
59824;SDS011;45703;50.898;6.054;2023-05-23T13:08:15;11.40;;;3.22;;
59824;SDS011;45703;50.898;6.054;2023-05-23T13:10:41;10.27;;;3.38;;
59824;SDS011;45703;50.898;6.054;2023-05-23T13:13:07;9.20;;;3.53;;
59824;SDS011;45703;50.898;6.054;2023-05-23T13:15:32;9.05;;;3.40;;
59824;SDS011;45703;50.898;6.054;2023-05-23T13:17:58;13.23;;;3.40;;
59824;SDS011;45703;50.898;6.054;2023-05-23T13:20:24;10.77;;;3.67;;
59824;SDS011;45703;50.898;6.054;2023-05-23T13:22:54;13.23;;;3.53;;
59824;SDS011;45703;50.898;6.054;2023-05-23T13:25:22;8.40;;;3.33;;
59824;SDS011;45703;50.898;6.054;2023-05-23T13:27:49;10.40;;;4.03;;
59824;SDS011;45703;50.898;6.054;2023-05-23T13:30:14;9.40;;;3.63;;
59824;SDS011;45703;50.898;6.054;2023-05-23T13:32:40;10.95;;;3.60;;
59824;SDS011;45703;50.898;6.054;2023-05-23T13:35:06;11.85;;;3.47;;
59824;SDS011;45703;50.898;6.054;2023-05-23T13:37:32;12.13;;;4.22;;
59824;SDS011;45703;50.898;6.054;2023-05-23T13:40:00;11.25;;;4.15;;
59824;SDS011;45703;50.898;6.054;2023-05-23T13:42:26;10.32;;;3.50;;
59824;SDS011;45703;50.898;6.054;2023-05-23T13:44:52;11.13;;;3.70;;
59824;SDS011;45703;50.898;6.054;2023-05-23T13:47:17;10.68;;;3.55;;
59824;SDS011;45703;50.898;6.054;2023-05-23T13:49:43;9.57;;;3.22;;
59824;SDS011;45703;50.898;6.054;2023-05-23T13:52:09;9.88;;;3.45;;
59824;SDS011;45703;50.898;6.054;2023-05-23T13:54:34;10.13;;;3.35;;
59824;SDS011;45703;50.898;6.054;2023-05-23T13:57:00;10.25;;;3.60;;
59824;SDS011;45703;50.898;6.054;2023-05-23T13:59:26;8.65;;;3.15;;
59824;SDS011;45703;50.898;6.054;2023-05-23T14:01:52;9.50;;;3.53;;
59824;SDS011;45703;50.898;6.054;2023-05-23T14:04:17;13.73;;;3.85;;
59824;SDS011;45703;50.898;6.054;2023-05-23T14:06:43;12.75;;;4.32;;
59824;SDS011;45703;50.898;6.054;2023-05-23T14:09:09;8.82;;;3.72;;
59824;SDS011;45703;50.898;6.054;2023-05-23T14:11:35;12.00;;;3.72;;
59824;SDS011;45703;50.898;6.054;2023-05-23T14:14:00;10.30;;;3.78;;
59824;SDS011;45703;50.898;6.054;2023-05-23T14:16:26;11.80;;;4.10;;
59824;SDS011;45703;50.898;6.054;2023-05-23T14:18:52;11.23;;;4.18;;
59824;SDS011;45703;50.898;6.054;2023-05-23T14:21:17;10.10;;;3.67;;
59824;SDS011;45703;50.898;6.054;2023-05-23T14:23:42;11.07;;;3.53;;
59824;SDS011;45703;50.898;6.054;2023-05-23T14:26:10;11.40;;;3.70;;
59824;SDS011;45703;50.898;6.054;2023-05-23T14:28:36;12.73;;;4.13;;
59824;SDS011;45703;50.898;6.054;2023-05-23T14:31:01;10.00;;;3.47;;
59824;SDS011;45703;50.898;6.054;2023-05-23T14:33:26;9.27;;;3.80;;
59824;SDS011;45703;50.898;6.054;2023-05-23T14:35:52;11.70;;;3.25;;
59824;SDS011;45703;50.898;6.054;2023-05-23T14:38:17;9.25;;;3.30;;
59824;SDS011;45703;50.898;6.054;2023-05-23T14:40:43;10.48;;;3.35;;
59824;SDS011;45703;50.898;6.054;2023-05-23T14:43:08;10.60;;;3.90;;
59824;SDS011;45703;50.898;6.054;2023-05-23T14:45:34;12.00;;;3.50;;
59824;SDS011;45703;50.898;6.054;2023-05-23T14:48:00;10.32;;;3.40;;
59824;SDS011;45703;50.898;6.054;2023-05-23T14:50:27;13.70;;;3.83;;
59824;SDS011;45703;50.898;6.054;2023-05-23T14:52:53;9.95;;;3.65;;
59824;SDS011;45703;50.898;6.054;2023-05-23T14:55:18;11.43;;;3.97;;